sensor_id;sensor_type;location;lat;lon;timestamp;temperature;humidity
19256;DHT22;9762;52.490;13.410;2024-02-23T00:01:47;14.40;99.90
19256;DHT22;9762;52.490;13.410;2024-02-23T00:04:13;14.40;99.90
19256;DHT22;9762;52.490;13.410;2024-02-23T00:06:39;14.30;99.90
19256;DHT22;9762;52.490;13.410;2024-02-23T00:09:05;14.30;99.90
19256;DHT22;9762;52.490;13.410;2024-02-23T00:11:31;14.30;99.90
19256;DHT22;9762;52.490;13.410;2024-02-23T00:13:59;14.30;99.90
19256;DHT22;9762;52.490;13.410;2024-02-23T00:16:24;14.20;99.90
19256;DHT22;9762;52.490;13.410;2024-02-23T00:18:51;14.20;99.90
19256;DHT22;9762;52.490;13.410;2024-02-23T00:21:17;14.30;99.90
19256;DHT22;9762;52.490;13.410;2024-02-23T00:23:43;14.20;99.90
19256;DHT22;9762;52.490;13.410;2024-02-23T00:26:09;14.30;99.90
19256;DHT22;9762;52.490;13.410;2024-02-23T00:28:34;14.20;99.90
19256;DHT22;9762;52.490;13.410;2024-02-23T00:31:00;14.20;99.90
19256;DHT22;9762;52.490;13.410;2024-02-23T00:33:26;14.30;99.90
19256;DHT22;9762;52.490;13.410;2024-02-23T00:35:51;14.30;99.90
19256;DHT22;9762;52.490;13.410;2024-02-23T00:38:17;14.40;99.90
19256;DHT22;9762;52.490;13.410;2024-02-23T00:40:43;14.40;99.90
19256;DHT22;9762;52.490;13.410;2024-02-23T00:43:08;14.40;99.90
19256;DHT22;9762;52.490;13.410;2024-02-23T00:45:34;14.40;99.90
19256;DHT22;9762;52.490;13.410;2024-02-23T00:47:59;14.40;99.90
19256;DHT22;9762;52.490;13.410;2024-02-23T00:50:25;14.40;99.90
19256;DHT22;9762;52.490;13.410;2024-02-23T00:52:54;14.50;99.90
19256;DHT22;9762;52.490;13.410;2024-02-23T00:55:20;14.50;99.90
19256;DHT22;9762;52.490;13.410;2024-02-23T00:57:45;14.50;99.90
19256;DHT22;9762;52.490;13.410;2024-02-23T01:00:11;14.50;99.90
19256;DHT22;9762;52.490;13.410;2024-02-23T01:02:38;14.50;99.90
19256;DHT22;9762;52.490;13.410;2024-02-23T01:05:04;14.60;99.90
19256;DHT22;9762;52.490;13.410;2024-02-23T01:07:30;14.60;99.90
19256;DHT22;9762;52.490;13.410;2024-02-23T01:09:56;14.60;99.90
19256;DHT22;9762;52.490;13.410;2024-02-23T01:12:22;14.60;99.90
19256;DHT22;9762;52.490;13.410;2024-02-23T01:14:47;14.60;99.90
19256;DHT22;9762;52.490;13.410;2024-02-23T01:17:14;14.60;99.90
19256;DHT22;9762;52.490;13.410;2024-02-23T01:19:42;14.60;99.90
19256;DHT22;9762;52.490;13.410;2024-02-23T01:22:08;14.60;99.90
19256;DHT22;9762;52.490;13.410;2024-02-23T01:24:34;14.50;99.90
19256;DHT22;9762;52.490;13.410;2024-02-23T01:27:00;14.40;99.90
19256;DHT22;9762;52.490;13.410;2024-02-23T01:29:26;14.40;99.90
19256;DHT22;9762;52.490;13.410;2024-02-23T01:31:52;14.40;99.90
19256;DHT22;9762;52.490;13.410;2024-02-23T01:34:20;14.40;99.80
19256;DHT22;9762;52.490;13.410;2024-02-23T01:36:46;14.40;99.60
19256;DHT22;9762;52.490;13.410;2024-02-23T01:39:12;14.40;99.50
19256;DHT22;9762;52.490;13.410;2024-02-23T01:41:37;14.50;99.40
19256;DHT22;9762;52.490;13.410;2024-02-23T01:44:03;14.50;98.90
19256;DHT22;9762;52.490;13.410;2024-02-23T01:46:29;14.40;98.60
19256;DHT22;9762;52.490;13.410;2024-02-23T01:48:55;14.40;98.40
19256;DHT22;9762;52.490;13.410;2024-02-23T01:51:21;14.50;98.30
19256;DHT22;9762;52.490;13.410;2024-02-23T01:53:47;14.50;97.60
19256;DHT22;9762;52.490;13.410;2024-02-23T01:56:14;14.40;97.10
19256;DHT22;9762;52.490;13.410;2024-02-23T01:58:43;14.40;97.10
19256;DHT22;9762;52.490;13.410;2024-02-23T02:01:10;14.40;96.90
19256;DHT22;9762;52.490;13.410;2024-02-23T02:03:38;14.40;96.90
19256;DHT22;9762;52.490;13.410;2024-02-23T02:06:07;14.40;96.80
19256;DHT22;9762;52.490;13.410;2024-02-23T02:08:36;14.40;96.50
19256;DHT22;9762;52.490;13.410;2024-02-23T02:11:02;14.40;96.20
19256;DHT22;9762;52.490;13.410;2024-02-23T02:13:29;14.50;95.90
19256;DHT22;9762;52.490;13.410;2024-02-23T02:15:54;14.40;95.30
19256;DHT22;9762;52.490;13.410;2024-02-23T02:18:20;14.40;94.90
19256;DHT22;9762;52.490;13.410;2024-02-23T02:20:54;14.40;94.40
19256;DHT22;9762;52.490;13.410;2024-02-23T02:23:20;14.40;93.30
19256;DHT22;9762;52.490;13.410;2024-02-23T02:25:52;14.30;92.40
19256;DHT22;9762;52.490;13.410;2024-02-23T02:28:18;14.30;99.90
19256;DHT22;9762;52.490;13.410;2024-02-23T02:30:44;14.30;95.60
19256;DHT22;9762;52.490;13.410;2024-02-23T02:33:10;14.20;92.90
19256;DHT22;9762;52.490;13.410;2024-02-23T02:35:35;14.20;96.40
19256;DHT22;9762;52.490;13.410;2024-02-23T02:38:01;14.00;99.40
19256;DHT22;9762;52.490;13.410;2024-02-23T02:40:26;14.00;88.10
19256;DHT22;9762;52.490;13.410;2024-02-23T02:42:52;13.80;86.70
19256;DHT22;9762;52.490;13.410;2024-02-23T02:45:18;13.80;87.10
19256;DHT22;9762;52.490;13.410;2024-02-23T02:47:43;13.80;85.90
19256;DHT22;9762;52.490;13.410;2024-02-23T02:50:09;13.80;86.00
19256;DHT22;9762;52.490;13.410;2024-02-23T02:52:35;13.70;86.30
19256;DHT22;9762;52.490;13.410;2024-02-23T02:55:00;13.70;86.30
19256;DHT22;9762;52.490;13.410;2024-02-23T02:57:26;13.70;86.00
19256;DHT22;9762;52.490;13.410;2024-02-23T02:59:52;13.70;85.80
19256;DHT22;9762;52.490;13.410;2024-02-23T03:02:17;13.60;86.20
19256;DHT22;9762;52.490;13.410;2024-02-23T03:04:49;13.70;86.60
19256;DHT22;9762;52.490;13.410;2024-02-23T03:07:16;13.60;86.30
19256;DHT22;9762;52.490;13.410;2024-02-23T03:09:41;13.60;86.30
19256;DHT22;9762;52.490;13.410;2024-02-23T03:12:08;13.60;85.70
19256;DHT22;9762;52.490;13.410;2024-02-23T03:14:33;13.60;86.10
19256;DHT22;9762;52.490;13.410;2024-02-23T03:16:59;13.50;86.30
19256;DHT22;9762;52.490;13.410;2024-02-23T03:19:25;13.50;85.30
19256;DHT22;9762;52.490;13.410;2024-02-23T03:21:51;13.50;85.60
19256;DHT22;9762;52.490;13.410;2024-02-23T03:24:17;13.50;85.00
19256;DHT22;9762;52.490;13.410;2024-02-23T03:26:43;13.50;84.60
19256;DHT22;9762;52.490;13.410;2024-02-23T03:29:09;13.50;84.40
19256;DHT22;9762;52.490;13.410;2024-02-23T03:31:35;13.40;83.90
19256;DHT22;9762;52.490;13.410;2024-02-23T03:34:03;13.40;84.00
19256;DHT22;9762;52.490;13.410;2024-02-23T03:36:28;13.30;84.10
19256;DHT22;9762;52.490;13.410;2024-02-23T03:38:54;13.30;83.60
19256;DHT22;9762;52.490;13.410;2024-02-23T03:41:19;13.30;83.60
19256;DHT22;9762;52.490;13.410;2024-02-23T03:43:45;13.30;83.40
19256;DHT22;9762;52.490;13.410;2024-02-23T03:46:11;13.20;83.60
19256;DHT22;9762;52.490;13.410;2024-02-23T03:48:37;13.30;83.50
19256;DHT22;9762;52.490;13.410;2024-02-23T03:51:04;13.30;83.20
19256;DHT22;9762;52.490;13.410;2024-02-23T03:53:30;13.20;82.50
19256;DHT22;9762;52.490;13.410;2024-02-23T03:55:57;13.20;83.10
19256;DHT22;9762;52.490;13.410;2024-02-23T03:58:22;13.20;84.10
19256;DHT22;9762;52.490;13.410;2024-02-23T04:00:48;13.20;83.40
19256;DHT22;9762;52.490;13.410;2024-02-23T04:03:14;13.20;83.50
19256;DHT22;9762;52.490;13.410;2024-02-23T04:05:39;13.20;83.30
19256;DHT22;9762;52.490;13.410;2024-02-23T04:08:05;13.20;83.30
19256;DHT22;9762;52.490;13.410;2024-02-23T04:10:31;13.20;83.30
19256;DHT22;9762;52.490;13.410;2024-02-23T04:12:58;13.20;83.60
19256;DHT22;9762;52.490;13.410;2024-02-23T04:15:23;13.20;84.00
19256;DHT22;9762;52.490;13.410;2024-02-23T04:17:49;13.30;83.90
19256;DHT22;9762;52.490;13.410;2024-02-23T04:20:15;13.30;83.80
19256;DHT22;9762;52.490;13.410;2024-02-23T04:22:40;13.30;83.80
19256;DHT22;9762;52.490;13.410;2024-02-23T04:25:06;13.20;83.60
19256;DHT22;9762;52.490;13.410;2024-02-23T04:27:32;13.20;83.50
19256;DHT22;9762;52.490;13.410;2024-02-23T04:29:57;13.10;83.90
19256;DHT22;9762;52.490;13.410;2024-02-23T04:32:23;13.10;84.00
19256;DHT22;9762;52.490;13.410;2024-02-23T04:34:49;13.10;84.00
19256;DHT22;9762;52.490;13.410;2024-02-23T04:37:14;13.10;83.50
19256;DHT22;9762;52.490;13.410;2024-02-23T04:39:40;13.10;83.60
19256;DHT22;9762;52.490;13.410;2024-02-23T04:42:07;13.10;83.60
19256;DHT22;9762;52.490;13.410;2024-02-23T04:44:34;13.10;83.50
19256;DHT22;9762;52.490;13.410;2024-02-23T04:47:00;13.00;83.20
19256;DHT22;9762;52.490;13.410;2024-02-23T04:49:26;13.00;83.50
19256;DHT22;9762;52.490;13.410;2024-02-23T04:51:51;12.90;82.50
19256;DHT22;9762;52.490;13.410;2024-02-23T04:54:17;12.80;82.50
19256;DHT22;9762;52.490;13.410;2024-02-23T04:56:44;12.80;82.60
19256;DHT22;9762;52.490;13.410;2024-02-23T04:59:09;12.80;82.90
19256;DHT22;9762;52.490;13.410;2024-02-23T05:01:36;12.70;82.30
19256;DHT22;9762;52.490;13.410;2024-02-23T05:04:02;12.70;82.20
19256;DHT22;9762;52.490;13.410;2024-02-23T05:06:29;12.70;81.90
19256;DHT22;9762;52.490;13.410;2024-02-23T05:08:54;12.70;82.20
19256;DHT22;9762;52.490;13.410;2024-02-23T05:11:20;12.70;81.60
19256;DHT22;9762;52.490;13.410;2024-02-23T05:13:46;12.70;81.40
19256;DHT22;9762;52.490;13.410;2024-02-23T05:16:14;12.60;81.40
19256;DHT22;9762;52.490;13.410;2024-02-23T05:18:39;12.60;81.40
19256;DHT22;9762;52.490;13.410;2024-02-23T05:21:06;12.60;82.00
19256;DHT22;9762;52.490;13.410;2024-02-23T05:23:31;12.60;82.20
19256;DHT22;9762;52.490;13.410;2024-02-23T05:25:57;12.60;81.90
19256;DHT22;9762;52.490;13.410;2024-02-23T05:28:23;12.60;81.90
19256;DHT22;9762;52.490;13.410;2024-02-23T05:30:49;12.60;81.60
19256;DHT22;9762;52.490;13.410;2024-02-23T05:33:14;12.60;81.50
19256;DHT22;9762;52.490;13.410;2024-02-23T05:35:40;12.50;81.30
19256;DHT22;9762;52.490;13.410;2024-02-23T05:38:06;12.50;80.90
19256;DHT22;9762;52.490;13.410;2024-02-23T05:40:32;12.40;80.50
19256;DHT22;9762;52.490;13.410;2024-02-23T05:43:01;12.40;80.00
19256;DHT22;9762;52.490;13.410;2024-02-23T05:45:27;12.30;80.10
19256;DHT22;9762;52.490;13.410;2024-02-23T05:47:52;12.30;79.80
19256;DHT22;9762;52.490;13.410;2024-02-23T05:50:18;12.20;80.00
19256;DHT22;9762;52.490;13.410;2024-02-23T05:52:43;12.20;80.50
19256;DHT22;9762;52.490;13.410;2024-02-23T05:55:09;12.20;79.80
19256;DHT22;9762;52.490;13.410;2024-02-23T05:57:35;12.10;79.00
19256;DHT22;9762;52.490;13.410;2024-02-23T06:00:01;12.10;78.80
19256;DHT22;9762;52.490;13.410;2024-02-23T06:02:26;12.10;79.40
19256;DHT22;9762;52.490;13.410;2024-02-23T06:04:52;12.00;79.30
19256;DHT22;9762;52.490;13.410;2024-02-23T06:07:17;12.00;79.20
19256;DHT22;9762;52.490;13.410;2024-02-23T06:09:43;11.90;79.40
19256;DHT22;9762;52.490;13.410;2024-02-23T06:12:09;11.90;80.10
19256;DHT22;9762;52.490;13.410;2024-02-23T06:14:35;11.90;80.50
19256;DHT22;9762;52.490;13.410;2024-02-23T06:17:01;11.90;80.80
19256;DHT22;9762;52.490;13.410;2024-02-23T06:19:28;12.00;81.30
19256;DHT22;9762;52.490;13.410;2024-02-23T06:21:54;12.00;81.70
19256;DHT22;9762;52.490;13.410;2024-02-23T06:24:19;12.10;80.90
19256;DHT22;9762;52.490;13.410;2024-02-23T06:26:45;12.10;80.70
19256;DHT22;9762;52.490;13.410;2024-02-23T06:29:12;12.10;79.80
19256;DHT22;9762;52.490;13.410;2024-02-23T06:31:40;12.00;79.60
19256;DHT22;9762;52.490;13.410;2024-02-23T06:34:07;12.00;79.90
19256;DHT22;9762;52.490;13.410;2024-02-23T06:36:33;12.00;80.10
19256;DHT22;9762;52.490;13.410;2024-02-23T06:38:58;12.00;80.00
19256;DHT22;9762;52.490;13.410;2024-02-23T06:41:24;12.00;81.20
19256;DHT22;9762;52.490;13.410;2024-02-23T06:43:49;11.90;80.10
19256;DHT22;9762;52.490;13.410;2024-02-23T06:46:19;11.90;80.60
19256;DHT22;9762;52.490;13.410;2024-02-23T06:48:45;12.00;80.20
19256;DHT22;9762;52.490;13.410;2024-02-23T06:51:11;11.90;79.80
19256;DHT22;9762;52.490;13.410;2024-02-23T06:53:37;11.90;79.70
19256;DHT22;9762;52.490;13.410;2024-02-23T06:56:03;11.90;80.20
19256;DHT22;9762;52.490;13.410;2024-02-23T06:58:29;12.00;80.00
19256;DHT22;9762;52.490;13.410;2024-02-23T07:00:55;12.00;80.60
19256;DHT22;9762;52.490;13.410;2024-02-23T07:03:20;12.10;82.40
19256;DHT22;9762;52.490;13.410;2024-02-23T07:05:46;12.20;81.00
19256;DHT22;9762;52.490;13.410;2024-02-23T07:08:13;12.30;81.00
19256;DHT22;9762;52.490;13.410;2024-02-23T07:10:39;12.40;80.50
19256;DHT22;9762;52.490;13.410;2024-02-23T07:13:05;12.50;79.40
19256;DHT22;9762;52.490;13.410;2024-02-23T07:15:32;12.50;79.20
19256;DHT22;9762;52.490;13.410;2024-02-23T07:17:58;12.50;79.30
19256;DHT22;9762;52.490;13.410;2024-02-23T07:20:24;12.50;80.30
19256;DHT22;9762;52.490;13.410;2024-02-23T07:22:49;12.50;79.30
19256;DHT22;9762;52.490;13.410;2024-02-23T07:25:18;12.60;79.70
19256;DHT22;9762;52.490;13.410;2024-02-23T07:27:47;12.60;80.40
19256;DHT22;9762;52.490;13.410;2024-02-23T07:30:16;12.70;80.20
19256;DHT22;9762;52.490;13.410;2024-02-23T07:32:43;12.80;80.50
19256;DHT22;9762;52.490;13.410;2024-02-23T07:35:09;12.80;80.10
19256;DHT22;9762;52.490;13.410;2024-02-23T07:37:36;12.90;79.50
19256;DHT22;9762;52.490;13.410;2024-02-23T07:40:02;13.00;80.20
19256;DHT22;9762;52.490;13.410;2024-02-23T07:42:29;13.10;79.80
19256;DHT22;9762;52.490;13.410;2024-02-23T07:44:55;13.10;79.60
19256;DHT22;9762;52.490;13.410;2024-02-23T07:47:21;13.20;78.50
19256;DHT22;9762;52.490;13.410;2024-02-23T07:49:47;13.20;78.80
19256;DHT22;9762;52.490;13.410;2024-02-23T07:52:13;13.20;78.20
19256;DHT22;9762;52.490;13.410;2024-02-23T07:54:38;13.20;78.30
19256;DHT22;9762;52.490;13.410;2024-02-23T07:57:04;13.20;78.60
19256;DHT22;9762;52.490;13.410;2024-02-23T07:59:30;13.20;78.40
19256;DHT22;9762;52.490;13.410;2024-02-23T08:01:56;13.20;78.90
19256;DHT22;9762;52.490;13.410;2024-02-23T08:04:22;13.30;79.10
19256;DHT22;9762;52.490;13.410;2024-02-23T08:06:48;13.30;78.70
19256;DHT22;9762;52.490;13.410;2024-02-23T08:09:14;13.30;78.40
19256;DHT22;9762;52.490;13.410;2024-02-23T08:11:40;13.20;78.30
19256;DHT22;9762;52.490;13.410;2024-02-23T08:14:06;13.20;78.10
19256;DHT22;9762;52.490;13.410;2024-02-23T08:16:32;13.20;78.50
19256;DHT22;9762;52.490;13.410;2024-02-23T08:18:58;13.20;79.40
19256;DHT22;9762;52.490;13.410;2024-02-23T08:21:25;13.20;79.10
19256;DHT22;9762;52.490;13.410;2024-02-23T08:23:51;13.20;79.20
19256;DHT22;9762;52.490;13.410;2024-02-23T08:26:17;13.30;79.10
19256;DHT22;9762;52.490;13.410;2024-02-23T08:28:42;13.30;79.00
19256;DHT22;9762;52.490;13.410;2024-02-23T08:31:08;13.30;79.20
19256;DHT22;9762;52.490;13.410;2024-02-23T08:33:34;13.30;78.50
19256;DHT22;9762;52.490;13.410;2024-02-23T08:36:00;13.30;78.80
19256;DHT22;9762;52.490;13.410;2024-02-23T08:38:25;13.30;78.60
19256;DHT22;9762;52.490;13.410;2024-02-23T08:40:51;13.30;78.40
19256;DHT22;9762;52.490;13.410;2024-02-23T08:43:16;13.30;78.10
19256;DHT22;9762;52.490;13.410;2024-02-23T08:45:42;13.30;77.60
19256;DHT22;9762;52.490;13.410;2024-02-23T08:48:08;13.30;77.00
19256;DHT22;9762;52.490;13.410;2024-02-23T08:50:34;13.20;77.30
19256;DHT22;9762;52.490;13.410;2024-02-23T08:53:00;13.20;76.50
19256;DHT22;9762;52.490;13.410;2024-02-23T08:55:25;13.20;76.80
19256;DHT22;9762;52.490;13.410;2024-02-23T08:57:51;13.20;76.30
19256;DHT22;9762;52.490;13.410;2024-02-23T09:00:17;13.10;76.10
19256;DHT22;9762;52.490;13.410;2024-02-23T09:02:42;13.10;76.30
19256;DHT22;9762;52.490;13.410;2024-02-23T09:05:11;13.10;76.00
19256;DHT22;9762;52.490;13.410;2024-02-23T09:07:37;13.10;76.10
19256;DHT22;9762;52.490;13.410;2024-02-23T09:10:03;13.10;76.50
19256;DHT22;9762;52.490;13.410;2024-02-23T09:12:30;13.20;77.30
19256;DHT22;9762;52.490;13.410;2024-02-23T09:14:56;13.20;76.40
19256;DHT22;9762;52.490;13.410;2024-02-23T09:17:21;13.10;76.50
19256;DHT22;9762;52.490;13.410;2024-02-23T09:19:47;13.10;77.00
19256;DHT22;9762;52.490;13.410;2024-02-23T09:22:13;13.30;77.10
19256;DHT22;9762;52.490;13.410;2024-02-23T09:24:42;13.30;76.30
19256;DHT22;9762;52.490;13.410;2024-02-23T09:27:07;13.30;76.20
19256;DHT22;9762;52.490;13.410;2024-02-23T09:29:34;13.50;76.90
19256;DHT22;9762;52.490;13.410;2024-02-23T09:31:59;13.50;77.00
19256;DHT22;9762;52.490;13.410;2024-02-23T09:34:26;13.50;76.90
19256;DHT22;9762;52.490;13.410;2024-02-23T09:36:51;13.60;76.60
19256;DHT22;9762;52.490;13.410;2024-02-23T09:39:17;13.70;75.30
19256;DHT22;9762;52.490;13.410;2024-02-23T09:41:43;13.60;75.40
19256;DHT22;9762;52.490;13.410;2024-02-23T09:44:09;13.70;75.70
19256;DHT22;9762;52.490;13.410;2024-02-23T09:46:37;13.70;75.30
19256;DHT22;9762;52.490;13.410;2024-02-23T09:49:03;13.70;76.00
19256;DHT22;9762;52.490;13.410;2024-02-23T09:51:32;13.80;76.20
19256;DHT22;9762;52.490;13.410;2024-02-23T09:53:59;13.90;74.10
19256;DHT22;9762;52.490;13.410;2024-02-23T09:56:27;13.90;73.20
19256;DHT22;9762;52.490;13.410;2024-02-23T09:58:56;13.80;72.30
19256;DHT22;9762;52.490;13.410;2024-02-23T10:01:28;13.80;71.90
19256;DHT22;9762;52.490;13.410;2024-02-23T10:03:57;13.90;72.00
19256;DHT22;9762;52.490;13.410;2024-02-23T10:06:27;13.80;72.00
19256;DHT22;9762;52.490;13.410;2024-02-23T10:08:56;13.80;72.60
19256;DHT22;9762;52.490;13.410;2024-02-23T10:11:22;13.80;73.00
19256;DHT22;9762;52.490;13.410;2024-02-23T10:13:48;13.90;73.80
19256;DHT22;9762;52.490;13.410;2024-02-23T10:16:18;13.90;73.80
19256;DHT22;9762;52.490;13.410;2024-02-23T10:18:48;13.90;73.90
19256;DHT22;9762;52.490;13.410;2024-02-23T10:21:17;13.90;73.90
19256;DHT22;9762;52.490;13.410;2024-02-23T10:23:47;13.90;74.50
19256;DHT22;9762;52.490;13.410;2024-02-23T10:26:13;14.00;74.90
19256;DHT22;9762;52.490;13.410;2024-02-23T10:28:45;14.00;74.60
19256;DHT22;9762;52.490;13.410;2024-02-23T10:31:12;14.10;75.00
19256;DHT22;9762;52.490;13.410;2024-02-23T10:33:38;14.10;74.10
19256;DHT22;9762;52.490;13.410;2024-02-23T10:36:05;14.20;73.40
19256;DHT22;9762;52.490;13.410;2024-02-23T10:38:32;14.20;73.60
19256;DHT22;9762;52.490;13.410;2024-02-23T10:41:01;14.20;72.20
19256;DHT22;9762;52.490;13.410;2024-02-23T10:43:33;14.30;71.50
19256;DHT22;9762;52.490;13.410;2024-02-23T10:46:01;14.30;70.00
19256;DHT22;9762;52.490;13.410;2024-02-23T10:48:29;14.30;69.90
19256;DHT22;9762;52.490;13.410;2024-02-23T10:50:56;14.30;68.90
19256;DHT22;9762;52.490;13.410;2024-02-23T10:53:23;14.40;70.10
19256;DHT22;9762;52.490;13.410;2024-02-23T10:55:53;14.40;70.50
19256;DHT22;9762;52.490;13.410;2024-02-23T10:58:21;14.50;70.10
19256;DHT22;9762;52.490;13.410;2024-02-23T11:00:48;14.40;69.10
19256;DHT22;9762;52.490;13.410;2024-02-23T11:03:14;14.40;69.40
19256;DHT22;9762;52.490;13.410;2024-02-23T11:05:40;14.50;69.40
19256;DHT22;9762;52.490;13.410;2024-02-23T11:08:06;14.60;69.70
19256;DHT22;9762;52.490;13.410;2024-02-23T11:10:42;14.60;68.90
19256;DHT22;9762;52.490;13.410;2024-02-23T11:13:08;14.70;69.50
19256;DHT22;9762;52.490;13.410;2024-02-23T11:15:34;14.80;68.70
19256;DHT22;9762;52.490;13.410;2024-02-23T11:18:21;14.80;68.40
19256;DHT22;9762;52.490;13.410;2024-02-23T11:20:54;14.90;68.00
19256;DHT22;9762;52.490;13.410;2024-02-23T11:23:20;15.10;67.50
19256;DHT22;9762;52.490;13.410;2024-02-23T11:26:05;15.20;67.10
19256;DHT22;9762;52.490;13.410;2024-02-23T11:28:42;15.40;65.80
19256;DHT22;9762;52.490;13.410;2024-02-23T11:31:15;15.60;65.40
19256;DHT22;9762;52.490;13.410;2024-02-23T11:33:48;16.00;64.50
19256;DHT22;9762;52.490;13.410;2024-02-23T11:36:28;16.30;64.50
19256;DHT22;9762;52.490;13.410;2024-02-23T11:38:57;16.70;66.10
19256;DHT22;9762;52.490;13.410;2024-02-23T11:41:23;16.90;63.00
19256;DHT22;9762;52.490;13.410;2024-02-23T11:43:50;17.20;86.40
19256;DHT22;9762;52.490;13.410;2024-02-23T11:46:16;17.40;60.50
19256;DHT22;9762;52.490;13.410;2024-02-23T11:48:43;17.50;60.10
19256;DHT22;9762;52.490;13.410;2024-02-23T11:51:09;17.50;58.90
19256;DHT22;9762;52.490;13.410;2024-02-23T11:53:37;17.40;58.50
19256;DHT22;9762;52.490;13.410;2024-02-23T11:56:05;17.30;58.90
19256;DHT22;9762;52.490;13.410;2024-02-23T11:58:34;17.20;58.80
19256;DHT22;9762;52.490;13.410;2024-02-23T12:01:01;17.00;58.90
19256;DHT22;9762;52.490;13.410;2024-02-23T12:03:29;16.90;59.50
19256;DHT22;9762;52.490;13.410;2024-02-23T12:05:57;16.80;59.30
19256;DHT22;9762;52.490;13.410;2024-02-23T12:08:27;16.50;59.90
19256;DHT22;9762;52.490;13.410;2024-02-23T12:10:56;16.30;61.20
19256;DHT22;9762;52.490;13.410;2024-02-23T12:13:22;16.20;61.40
19256;DHT22;9762;52.490;13.410;2024-02-23T12:15:48;16.20;62.10
19256;DHT22;9762;52.490;13.410;2024-02-23T12:18:18;16.20;62.00
19256;DHT22;9762;52.490;13.410;2024-02-23T12:20:47;16.20;61.60
19256;DHT22;9762;52.490;13.410;2024-02-23T12:23:13;16.10;61.50
19256;DHT22;9762;52.490;13.410;2024-02-23T12:25:38;16.00;61.60
19256;DHT22;9762;52.490;13.410;2024-02-23T12:28:05;16.00;77.00
19256;DHT22;9762;52.490;13.410;2024-02-23T12:30:30;16.00;62.00
19256;DHT22;9762;52.490;13.410;2024-02-23T12:33:07;15.60;62.40
19256;DHT22;9762;52.490;13.410;2024-02-23T12:35:34;15.40;63.80
19256;DHT22;9762;52.490;13.410;2024-02-23T12:38:01;15.40;64.20
19256;DHT22;9762;52.490;13.410;2024-02-23T12:40:27;15.40;64.20
19256;DHT22;9762;52.490;13.410;2024-02-23T12:42:52;15.40;64.30
19256;DHT22;9762;52.490;13.410;2024-02-23T12:45:18;15.40;64.70
19256;DHT22;9762;52.490;13.410;2024-02-23T12:47:44;15.50;65.50
19256;DHT22;9762;52.490;13.410;2024-02-23T12:50:09;15.70;65.30
19256;DHT22;9762;52.490;13.410;2024-02-23T12:52:36;15.80;64.50
19256;DHT22;9762;52.490;13.410;2024-02-23T12:55:02;15.80;64.00
19256;DHT22;9762;52.490;13.410;2024-02-23T12:57:28;15.90;64.20
19256;DHT22;9762;52.490;13.410;2024-02-23T12:59:53;15.90;63.40
19256;DHT22;9762;52.490;13.410;2024-02-23T13:02:20;15.90;62.80
19256;DHT22;9762;52.490;13.410;2024-02-23T13:04:46;15.90;63.30
19256;DHT22;9762;52.490;13.410;2024-02-23T13:07:17;15.90;62.90
19256;DHT22;9762;52.490;13.410;2024-02-23T13:09:43;15.80;63.00
19256;DHT22;9762;52.490;13.410;2024-02-23T13:12:09;15.90;62.90
19256;DHT22;9762;52.490;13.410;2024-02-23T13:14:34;15.80;63.20
19256;DHT22;9762;52.490;13.410;2024-02-23T13:17:00;15.80;63.50
19256;DHT22;9762;52.490;13.410;2024-02-23T13:19:25;15.80;63.80
19256;DHT22;9762;52.490;13.410;2024-02-23T13:21:52;15.80;63.70
19256;DHT22;9762;52.490;13.410;2024-02-23T13:24:17;15.60;64.30
19256;DHT22;9762;52.490;13.410;2024-02-23T13:26:43;15.60;64.60
19256;DHT22;9762;52.490;13.410;2024-02-23T13:29:09;15.50;64.60
19256;DHT22;9762;52.490;13.410;2024-02-23T13:31:34;15.60;64.80
19256;DHT22;9762;52.490;13.410;2024-02-23T13:34:00;15.60;65.40
19256;DHT22;9762;52.490;13.410;2024-02-23T13:36:25;15.60;64.80
19256;DHT22;9762;52.490;13.410;2024-02-23T13:38:51;15.50;64.60
19256;DHT22;9762;52.490;13.410;2024-02-23T13:41:17;15.50;64.70
19256;DHT22;9762;52.490;13.410;2024-02-23T13:43:43;15.40;65.10
19256;DHT22;9762;52.490;13.410;2024-02-23T13:46:09;15.40;65.30
19256;DHT22;9762;52.490;13.410;2024-02-23T13:48:36;15.30;64.90
19256;DHT22;9762;52.490;13.410;2024-02-23T13:51:01;15.30;64.60
19256;DHT22;9762;52.490;13.410;2024-02-23T13:53:29;15.20;64.80
19256;DHT22;9762;52.490;13.410;2024-02-23T13:55:56;15.20;65.00
19256;DHT22;9762;52.490;13.410;2024-02-23T13:58:22;15.20;66.10
19256;DHT22;9762;52.490;13.410;2024-02-23T14:00:47;15.30;66.00
19256;DHT22;9762;52.490;13.410;2024-02-23T14:03:16;15.30;65.50
19256;DHT22;9762;52.490;13.410;2024-02-23T14:05:43;15.30;65.90
19256;DHT22;9762;52.490;13.410;2024-02-23T14:08:10;15.40;66.70
19256;DHT22;9762;52.490;13.410;2024-02-23T14:10:36;15.30;65.40
19256;DHT22;9762;52.490;13.410;2024-02-23T14:13:02;15.20;66.50
19256;DHT22;9762;52.490;13.410;2024-02-23T14:15:27;15.20;66.30
19256;DHT22;9762;52.490;13.410;2024-02-23T14:17:53;15.10;66.00
19256;DHT22;9762;52.490;13.410;2024-02-23T14:20:18;14.90;66.30
19256;DHT22;9762;52.490;13.410;2024-02-23T14:22:44;14.90;66.50
19256;DHT22;9762;52.490;13.410;2024-02-23T14:25:10;14.80;65.90
19256;DHT22;9762;52.490;13.410;2024-02-23T14:27:35;14.60;65.80
19256;DHT22;9762;52.490;13.410;2024-02-23T14:30:01;14.70;65.50
19256;DHT22;9762;52.490;13.410;2024-02-23T14:32:27;14.60;64.90
19256;DHT22;9762;52.490;13.410;2024-02-23T14:34:53;14.50;65.10
19256;DHT22;9762;52.490;13.410;2024-02-23T14:37:18;14.50;64.70
19256;DHT22;9762;52.490;13.410;2024-02-23T14:39:44;14.40;65.10
19256;DHT22;9762;52.490;13.410;2024-02-23T14:42:10;14.40;65.30
19256;DHT22;9762;52.490;13.410;2024-02-23T14:44:36;14.30;65.90
19256;DHT22;9762;52.490;13.410;2024-02-23T14:47:02;14.30;65.70
19256;DHT22;9762;52.490;13.410;2024-02-23T14:49:28;14.30;65.60
19256;DHT22;9762;52.490;13.410;2024-02-23T14:51:54;14.30;65.90
19256;DHT22;9762;52.490;13.410;2024-02-23T14:54:19;14.20;66.40
19256;DHT22;9762;52.490;13.410;2024-02-23T14:56:45;14.20;66.40
19256;DHT22;9762;52.490;13.410;2024-02-23T14:59:12;14.20;66.70
19256;DHT22;9762;52.490;13.410;2024-02-23T15:01:38;14.20;67.60
19256;DHT22;9762;52.490;13.410;2024-02-23T15:04:07;14.20;67.20
19256;DHT22;9762;52.490;13.410;2024-02-23T15:06:32;14.20;67.30
19256;DHT22;9762;52.490;13.410;2024-02-23T15:08:58;14.10;67.50
19256;DHT22;9762;52.490;13.410;2024-02-23T15:11:24;14.10;67.90
19256;DHT22;9762;52.490;13.410;2024-02-23T15:13:50;14.20;68.10
19256;DHT22;9762;52.490;13.410;2024-02-23T15:16:17;14.30;68.20
19256;DHT22;9762;52.490;13.410;2024-02-23T15:18:42;14.40;68.90
19256;DHT22;9762;52.490;13.410;2024-02-23T15:21:08;14.40;68.40
19256;DHT22;9762;52.490;13.410;2024-02-23T15:23:34;14.40;68.20
19256;DHT22;9762;52.490;13.410;2024-02-23T15:25:59;14.40;69.00